Skip Navigation Links Skip Navigation Links

Current Weather

Chicago O'Hare Intl, Chicago

For information only: do not use for flight planning or navigation.
Latest weather
Observation time Sunday, January 21, 2018 1:51 PM CST
Local time Sunday, January 21, 2018 2:38 PM CST
Flight conditions Low Instrument Meteorological Conditions
Winds
Wind speed calm
Visibility 2 mi.
Present weather mist
Sky condition
Ceiling 400 ft. overcast
Cloud layer overcast 400 ft.
Temperature 44°F
Dewpoint 41°F
Altimeter 29.89 in.Hg
Derived measurements
Relative humidity 89%
Wind chill 44°F
Density altitude -168 ft.
Sea-level pressure 29.90 in.Hg
Remarks
Automated weather observing station with precipitation discriminator.
METAR KORD 211951Z 00000KT 2SM BR OVC004 07/05 A2989 RMK AO2 SLP125 T00670050

Settings

Location code

InnerDrive.Weather 4.0.6144.1 Release CLR 4.0.30319.36366
Copyright ©2015 Inner Drive Technology. All rights reserved. Portions Copyright ©1986-2015 David Braverman.

Find weather

Site navigation


Skip Navigation Links

Place info

Page info

PayPal - The safer, easier way to pay online!

Return home.

Copyright ©2018 Inner Drive Technology. Purveyors of fine, hand-crafted computer software. Page printed 2018-01-21T20:38:39 UTC.